createdAt,value
2022-08-21T00:04:31.295Z,71.86
2022-08-21T00:09:42.132Z,72.00
2022-08-21T00:14:58.164Z,72.04
2022-08-21T00:20:20.971Z,72.09
2022-08-21T00:25:31.664Z,72.06
2022-08-21T00:30:40.691Z,72.22
2022-08-21T00:35:57.653Z,72.27
2022-08-21T00:41:29.913Z,72.42
2022-08-21T00:46:48.836Z,72.41
2022-08-21T00:52:07.872Z,72.65
2022-08-21T00:57:26.339Z,72.53
2022-08-21T01:02:35.619Z,72.75
2022-08-21T01:08:02.445Z,72.66
2022-08-21T01:13:25.767Z,72.85
2022-08-21T01:18:53.948Z,73.01
2022-08-21T01:24:04.197Z,72.96
2022-08-21T01:29:18.956Z,73.12
2022-08-21T01:34:33.835Z,73.30
2022-08-21T01:39:39.981Z,73.22
2022-08-21T01:44:51.060Z,73.40
2022-08-21T01:50:11.514Z,73.42
2022-08-21T01:55:28.478Z,73.36
2022-08-21T02:00:56.119Z,73.60
2022-08-21T02:06:08.066Z,73.70
2022-08-21T02:11:15.755Z,73.64
2022-08-21T02:16:23.457Z,73.79
2022-08-21T02:21:42.904Z,73.90
2022-08-21T02:26:50.813Z,74.05
2022-08-21T02:32:09.038Z,74.10
2022-08-21T02:37:18.082Z,74.26
2022-08-21T02:42:27.938Z,74.35
2022-08-21T02:47:38.589Z,74.48
2022-08-21T02:52:48.559Z,74.44
2022-08-21T02:58:00.832Z,74.47
2022-08-21T03:03:08.969Z,74.57
2022-08-21T03:08:31.148Z,74.69
2022-08-21T03:13:36.851Z,74.78
2022-08-21T03:18:44.681Z,74.82
2022-08-21T03:23:57.617Z,74.91
2022-08-21T03:29:13.985Z,74.88
2022-08-21T03:34:29.940Z,75.05
2022-08-21T03:39:40.214Z,75.01
2022-08-21T03:44:47.742Z,75.13
2022-08-21T03:49:59.331Z,75.19
2022-08-21T03:55:07.825Z,75.28
2022-08-21T04:00:20.386Z,75.17
2022-08-21T04:05:31.281Z,75.08
2022-08-21T04:10:43.013Z,75.15
2022-08-21T04:16:00.486Z,75.29
2022-08-21T04:21:11.170Z,75.32
2022-08-21T04:26:28.007Z,75.19
2022-08-21T04:31:38.978Z,75.17
2022-08-21T04:36:53.617Z,75.20
2022-08-21T04:42:04.132Z,75.31
2022-08-21T04:47:11.468Z,75.42
2022-08-21T04:52:23.871Z,75.50
2022-08-21T04:57:48.317Z,75.55
2022-08-21T05:03:00.508Z,75.57
2022-08-21T05:08:21.530Z,75.63
2022-08-21T05:13:28.953Z,75.69
2022-08-21T05:18:36.415Z,75.79
2022-08-21T05:23:48.997Z,75.69
2022-08-21T05:29:41.263Z,75.80
2022-08-21T05:34:51.714Z,76.03
2022-08-21T05:40:21.645Z,75.90
2022-08-21T05:45:41.944Z,75.94
2022-08-21T05:50:54.989Z,75.97
2022-08-21T05:56:05.093Z,76.09
2022-08-21T06:01:16.243Z,76.12
2022-08-21T06:06:24.029Z,76.25
2022-08-21T06:11:32.177Z,76.23
2022-08-21T06:16:53.264Z,76.29
2022-08-21T06:22:10.973Z,76.24
2022-08-21T06:27:24.734Z,76.27
2022-08-21T06:32:36.453Z,76.25
2022-08-21T06:38:02.576Z,76.25
2022-08-21T06:43:39.273Z,76.30
2022-08-21T06:48:50.706Z,76.27
2022-08-21T06:54:02.945Z,76.36
2022-08-21T06:59:27.047Z,76.21
2022-08-21T07:04:54.586Z,76.45
2022-08-21T07:10:01.972Z,76.29
2022-08-21T07:15:13.850Z,76.34
2022-08-21T07:20:28.742Z,76.47
2022-08-21T07:25:36.718Z,76.39
2022-08-21T07:30:58.611Z,76.45
2022-08-21T07:36:16.768Z,76.63
2022-08-21T07:41:30.262Z,76.73
2022-08-21T07:46:57.725Z,76.70
2022-08-21T07:52:25.392Z,76.65
2022-08-21T07:57:45.509Z,76.60
2022-08-21T08:02:58.234Z,76.61
2022-08-21T08:08:07.603Z,76.52
2022-08-21T08:13:43.426Z,76.65
2022-08-21T08:19:13.574Z,76.61
2022-08-21T08:32:09.691Z,76.54
2022-08-21T08:37:52.211Z,76.66
2022-08-21T08:43:00.625Z,76.66
2022-08-21T08:48:39.067Z,76.60
2022-08-21T09:00:57.322Z,76.42
2022-08-21T09:06:25.826Z,76.53
2022-08-21T09:11:39.475Z,76.48
2022-08-21T09:16:58.148Z,76.43
2022-08-21T09:22:24.289Z,76.61
2022-08-21T09:27:34.139Z,76.68
2022-08-21T09:32:42.625Z,76.45
2022-08-21T09:37:58.091Z,76.60
2022-08-21T09:43:24.215Z,76.78
2022-08-21T09:48:46.909Z,76.75
2022-08-21T09:54:19.962Z,76.64
2022-08-21T09:59:49.816Z,76.56
2022-08-21T10:05:27.071Z,76.70
2022-08-21T10:10:57.920Z,76.66
2022-08-21T10:16:17.586Z,76.71
2022-08-21T10:21:50.872Z,76.54
2022-08-21T10:27:12.507Z,76.46
2022-08-21T10:32:37.261Z,76.42
2022-08-21T10:38:50.393Z,76.19
2022-08-21T10:44:26.432Z,76.29
2022-08-21T10:49:42.042Z,76.44
2022-08-21T10:55:06.349Z,76.49
2022-08-21T11:00:42.931Z,76.34
2022-08-21T11:06:40.432Z,76.23
2022-08-21T11:12:11.463Z,76.12
2022-08-21T11:17:25.666Z,76.17
2022-08-21T11:22:42.798Z,76.17
2022-08-21T11:28:02.795Z,76.49
2022-08-21T11:33:28.737Z,76.14
2022-08-21T11:38:53.032Z,76.45
2022-08-21T11:44:11.607Z,76.35
2022-08-21T11:49:41.440Z,76.53
2022-08-21T11:55:05.358Z,76.35
2022-08-21T12:00:20.163Z,76.24
2022-08-21T12:05:37.473Z,76.10
2022-08-21T12:11:05.559Z,76.18
2022-08-21T12:16:34.651Z,75.87
2022-08-21T12:22:01.354Z,75.93
2022-08-21T12:27:31.577Z,75.99
2022-08-21T12:32:57.754Z,75.99
2022-08-21T12:38:20.622Z,75.86
2022-08-21T12:43:42.696Z,75.96
2022-08-21T12:49:02.512Z,76.00
2022-08-21T12:54:12.618Z,76.06
2022-08-21T12:59:22.240Z,76.27
2022-08-21T13:04:41.265Z,76.24
2022-08-21T13:09:59.270Z,76.46
2022-08-21T13:15:33.642Z,76.44
2022-08-21T13:21:04.679Z,76.39
2022-08-21T13:26:24.490Z,76.55
2022-08-21T13:31:54.128Z,76.84
2022-08-21T13:37:07.512Z,76.83
2022-08-21T13:42:36.270Z,76.97
2022-08-21T13:47:49.041Z,76.91
2022-08-21T13:53:22.111Z,77.02
2022-08-21T13:58:31.885Z,77.05
2022-08-21T14:03:47.781Z,77.11
2022-08-21T14:09:01.725Z,76.95
2022-08-21T14:14:26.719Z,76.88
2022-08-21T14:19:45.300Z,77.10
2022-08-21T14:25:10.043Z,77.12
2022-08-21T14:31:14.886Z,77.22
2022-08-21T14:36:34.999Z,77.35
2022-08-21T14:41:56.232Z,77.37
2022-08-21T14:47:23.226Z,77.35
2022-08-21T14:52:41.557Z,77.46
2022-08-21T14:57:51.521Z,77.44
2022-08-21T15:03:17.778Z,77.47
2022-08-21T15:08:45.721Z,77.55
2022-08-21T15:14:09.476Z,77.48
2022-08-21T15:19:20.971Z,77.47
2022-08-21T15:31:30.446Z,77.55
2022-08-21T15:36:45.363Z,77.28
2022-08-21T15:41:53.107Z,77.41
2022-08-21T15:47:28.618Z,77.21
2022-08-21T15:52:47.291Z,77.33
2022-08-21T15:58:22.277Z,77.31
2022-08-21T16:03:55.169Z,77.18
2022-08-21T16:09:03.883Z,77.16
2022-08-21T16:14:33.209Z,77.22
2022-08-21T16:20:02.597Z,77.30
2022-08-21T16:25:17.556Z,77.30
2022-08-21T16:30:30.359Z,77.25
2022-08-21T16:35:47.638Z,77.50
2022-08-21T16:40:55.619Z,77.30
2022-08-21T16:46:06.092Z,77.28
2022-08-21T16:52:09.917Z,77.23
2022-08-21T16:57:42.758Z,77.45
2022-08-21T17:03:03.601Z,77.37
2022-08-21T17:08:32.531Z,77.42
2022-08-21T17:13:51.251Z,77.13
2022-08-21T17:18:58.717Z,77.07
2022-08-21T17:24:16.191Z,77.34
2022-08-21T17:29:41.671Z,77.22
2022-08-21T17:35:11.213Z,77.24
2022-08-21T17:40:26.076Z,77.19
2022-08-21T17:45:47.327Z,77.18
2022-08-21T17:50:55.129Z,77.24
2022-08-21T17:56:14.319Z,77.23
2022-08-21T18:01:45.570Z,77.32
2022-08-21T18:07:02.070Z,77.23
2022-08-21T18:12:10.101Z,77.28
2022-08-21T18:17:21.898Z,77.18
2022-08-21T18:22:45.775Z,77.13
2022-08-21T18:28:11.278Z,76.96
2022-08-21T18:33:25.379Z,77.17
2022-08-21T18:38:53.278Z,77.13
2022-08-21T18:44:25.167Z,77.02
2022-08-21T18:49:40.052Z,76.83
2022-08-21T18:55:13.125Z,76.77
2022-08-21T19:00:47.598Z,76.77
2022-08-21T19:05:58.096Z,76.80
2022-08-21T19:11:23.413Z,76.76
2022-08-21T19:17:00.668Z,76.80
2022-08-21T19:22:11.417Z,76.52
2022-08-21T19:27:25.042Z,76.74
2022-08-21T19:32:57.647Z,76.75
2022-08-21T19:38:21.016Z,76.57
2022-08-21T19:43:41.030Z,76.35
2022-08-21T19:49:11.884Z,76.19
2022-08-21T19:54:34.324Z,76.19
2022-08-21T19:59:49.806Z,76.02
2022-08-21T20:11:12.973Z,75.77
2022-08-21T20:16:45.529Z,75.57
2022-08-21T20:22:06.134Z,75.53
2022-08-21T20:27:22.603Z,75.38
2022-08-21T20:32:47.812Z,75.42
2022-08-21T20:37:59.881Z,75.09
2022-08-21T20:43:14.863Z,75.13
2022-08-21T20:48:48.937Z,74.87
2022-08-21T20:54:35.207Z,74.92
2022-08-21T20:59:54.411Z,74.90
2022-08-21T21:05:07.131Z,74.83
2022-08-21T21:10:21.831Z,74.97
2022-08-21T21:15:36.971Z,74.88
2022-08-21T21:20:56.862Z,74.84
2022-08-21T21:26:29.172Z,74.77
2022-08-21T21:31:47.060Z,74.80
2022-08-21T21:37:04.526Z,74.89
2022-08-21T21:42:42.576Z,74.83
2022-08-21T21:48:07.380Z,74.89
2022-08-21T21:53:51.668Z,75.07
2022-08-21T21:59:46.063Z,75.06
2022-08-21T22:05:23.048Z,75.02
2022-08-21T22:10:43.196Z,74.91
2022-08-21T22:16:25.392Z,75.22
2022-08-21T22:22:00.067Z,75.36
2022-08-21T22:27:23.239Z,75.22
2022-08-21T22:32:45.716Z,75.25
2022-08-21T22:38:33.738Z,75.32
2022-08-21T22:43:53.841Z,75.10
2022-08-21T22:49:16.027Z,75.03
2022-08-21T22:54:34.134Z,74.95
2022-08-21T23:00:00.875Z,74.98
2022-08-21T23:05:25.153Z,75.06
2022-08-21T23:10:42.969Z,75.17
2022-08-21T23:16:12.407Z,75.28
2022-08-21T23:21:31.841Z,75.10
2022-08-21T23:26:57.519Z,75.21
2022-08-21T23:32:15.981Z,75.21
2022-08-21T23:37:51.961Z,75.49
2022-08-21T23:43:31.000Z,75.41
2022-08-21T23:48:53.198Z,75.52
2022-08-21T23:54:14.963Z,75.55
2022-08-21T23:59:45.003Z,75.63
